地図

経路データ

SID SEASON NUMBER BASIN SUBBASIN NAME ISO_TIME NATURE LAT LON WMO_WIND WMO_PRES WMO_AGENCY TRACK_TYPE DIST2LAND LANDFALL IFLAG USA_AGENCY USA_ATCF_ID USA_LAT USA_LON USA_RECORD USA_STATUS USA_WIND USA_PRES USA_SSHS USA_R34_NE USA_R34_SE USA_R34_SW USA_R34_NW USA_R50_NE USA_R50_SE USA_R50_SW USA_R50_NW USA_R64_NE USA_R64_SE USA_R64_SW USA_R64_NW USA_POCI USA_ROCI USA_RMW USA_EYE TOKYO_LAT TOKYO_LON TOKYO_GRADE TOKYO_WIND TOKYO_PRES TOKYO_R50_DIR TOKYO_R50_LONG TOKYO_R50_SHORT TOKYO_R30_DIR TOKYO_R30_LONG TOKYO_R30_SHORT TOKYO_LAND CMA_LAT CMA_LON CMA_CAT CMA_WIND CMA_PRES HKO_LAT HKO_LON HKO_CAT HKO_WIND HKO_PRES NEWDELHI_LAT NEWDELHI_LON NEWDELHI_GRADE NEWDELHI_WIND NEWDELHI_PRES NEWDELHI_CI NEWDELHI_DP NEWDELHI_POCI REUNION_LAT REUNION_LON REUNION_TYPE REUNION_WIND REUNION_PRES REUNION_TNUM REUNION_CI REUNION_RMW REUNION_R34_NE REUNION_R34_SE REUNION_R34_SW REUNION_R34_NW REUNION_R50_NE REUNION_R50_SE REUNION_R50_SW REUNION_R50_NW REUNION_R64_NE REUNION_R64_SE REUNION_R64_SW REUNION_R64_NW BOM_LAT BOM_LON BOM_TYPE BOM_WIND BOM_PRES BOM_TNUM BOM_CI BOM_RMW BOM_R34_NE BOM_R34_SE BOM_R34_SW BOM_R34_NW BOM_R50_NE BOM_R50_SE BOM_R50_SW BOM_R50_NW BOM_R64_NE BOM_R64_SE BOM_R64_SW BOM_R64_NW BOM_ROCI BOM_POCI BOM_EYE BOM_POS_METHOD BOM_PRES_METHOD NADI_LAT NADI_LON NADI_CAT NADI_WIND NADI_PRES WELLINGTON_LAT WELLINGTON_LON WELLINGTON_WIND WELLINGTON_PRES DS824_LAT DS824_LON DS824_STAGE DS824_WIND DS824_PRES TD9636_LAT TD9636_LON TD9636_STAGE TD9636_WIND TD9636_PRES TD9635_LAT TD9635_LON TD9635_WIND TD9635_PRES TD9635_ROCI NEUMANN_LAT NEUMANN_LON NEUMANN_CLASS NEUMANN_WIND NEUMANN_PRES MLC_LAT MLC_LON MLC_CLASS MLC_WIND MLC_PRES USA_GUST BOM_GUST BOM_GUST_PER REUNION_GUST REUNION_GUST_PER USA_SEAHGT USA_SEARAD_NE USA_SEARAD_SE USA_SEARAD_SW USA_SEARAD_NW STORM_SPEED STORM_DIR
1927151N17091 1927 27 NI BB NOT_NAMED 1927-05-31 00:00:00 TS 17.3000 91.4000 main 308 308 _________O____ -1 17.3000 91.4000 TC 30 1 318
1927151N17091 1927 27 NI BB NOT_NAMED 1927-05-31 03:00:00 TS 17.3417 91.3667 main 308 301 _________PO___ -1 17.3625 91.3500 TC 31 17.3000 91.4000 1 1 312
1927151N17091 1927 27 NI BB NOT_NAMED 1927-05-31 06:00:00 TS 17.3706 91.3219 main 310 310 _________OP___ -1 17.4000 91.3000 TC 32 17.3266 91.3547 1 1 293
1927151N17091 1927 27 NI BB NOT_NAMED 1927-05-31 09:00:00 TS 17.3796 91.2747 main 310 310 _________PP___ -1 17.4000 91.2500 TC 33 17.3525 91.3075 1 1 282
1927151N17091 1927 27 NI BB NOT_NAMED 1927-05-31 12:00:00 TS 17.3886 91.2283 main 319 319 _________OP___ -1 17.4000 91.2000 TC 34 17.3772 91.2566 1 1 298
1927151N17091 1927 27 NI BB NOT_NAMED 1927-05-31 15:00:00 TS 17.4250 91.1788 main 319 319 _________PO___ -1 17.4500 91.1575 TC 36 17.4000 91.2000 2 1 305
1927151N17091 1927 27 NI BB NOT_NAMED 1927-05-31 18:00:00 TS 17.4605 91.1181 main 321 321 _________OP___ -1 17.5000 91.1000 TC 39 17.4209 91.1362 2 1 289
1927151N17091 1927 27 NI BB NOT_NAMED 1927-05-31 21:00:00 TS 17.4712 91.0362 main 330 330 _________PP___ -1 17.5000 91.0075 TC 42 17.4425 91.0650 2 2 278
1927151N17091 1927 27 NI BB NOT_NAMED 1927-06-01 00:00:00 TS 17.4839 90.9431 main 340 340 _________OP___ -1 17.5000 90.9000 TC 45 17.4678 90.9862 2 2 286
1927151N17091 1927 27 NI BB NOT_NAMED 1927-06-01 03:00:00 TS 17.5212 90.8500 main 340 340 _________PO___ -1 17.5425 90.8000 TC 45 17.5000 90.9000 3 2 295
1927151N17091 1927 27 NI BB NOT_NAMED 1927-06-01 06:00:00 TS 17.5694 90.7536 main 343 343 _________OP___ -1 17.6000 90.7000 TC 45 17.5388 90.8072 3 2 297
1927151N17091 1927 27 NI BB NOT_NAMED 1927-06-01 09:00:00 TS 17.6175 90.6537 main 353 353 _________PP___ -1 17.6500 90.6000 TC 45 17.5850 90.7075 3 2 297
1927151N17091 1927 27 NI BB NOT_NAMED 1927-06-01 12:00:00 TS 17.6694 90.5520 main 358 358 _________OP___ -1 17.7000 90.5000 TC 45 17.6387 90.6040 3 2 298
1927151N17091 1927 27 NI BB NOT_NAMED 1927-06-01 15:00:00 TS 17.7212 90.4500 main 367 367 _________PO___ -1 17.7425 90.4000 TC 45 17.7000 90.5000 3 2 300
1927151N17091 1927 27 NI BB NOT_NAMED 1927-06-01 18:00:00 TS 17.7798 90.3540 main 367 367 _________OP___ -1 17.8000 90.3000 TC 45 17.7596 90.4081 3 2 308
1927151N17091 1927 27 NI BB NOT_NAMED 1927-06-01 21:00:00 TS 17.8600 90.2612 main 367 367 _________PP___ -1 17.8925 90.2075 TC 45 17.8274 90.3149 3 3 313
1927151N17091 1927 27 NI BB NOT_NAMED 1927-06-02 00:00:00 TS 17.9533 90.1571 main 367 367 _________OP___ -1 18.0000 90.1000 TC 45 17.9065 90.2143 3 3 310
1927151N17091 1927 27 NI BB NOT_NAMED 1927-06-02 03:00:00 TS 18.0463 90.0287 main 382 375 _________PO___ -1 18.0925 89.9575 TC 45 18.0000 90.1000 3 3 307
1927151N17091 1927 27 NI BB NOT_NAMED 1927-06-02 06:00:00 TS 18.1451 89.8862 main 383 376 _________OP___ -1 18.2000 89.8000 TC 45 18.0903 89.9723 3 3 309
1927151N17091 1927 27 NI BB NOT_NAMED 1927-06-02 09:00:00 TS 18.2625 89.7436 main 374 361 _________PP___ -1 18.3275 89.6574 TC 45 18.1974 89.8297 3 4 313
1927151N17091 1927 27 NI BB NOT_NAMED 1927-06-02 12:00:00 TS 18.4154 89.5861 main 361 336 _________OP___ -1 18.5000 89.5000 TC 45 18.3309 89.6722 3 5 318
1927151N17091 1927 27 NI BB NOT_NAMED 1927-06-02 15:00:00 TS 18.6175 89.4038 main 336 302 _________PO___ -1 18.7350 89.3075 TC 49 18.5000 89.5000 3 6 321
1927151N17091 1927 27 NI BB NOT_NAMED 1927-06-02 18:00:00 TS 18.8693 89.1952 main 302 275 _________OP___ -1 19.0000 89.1000 TC 54 18.7386 89.2905 3 7 322
1927151N17091 1927 27 NI BB NOT_NAMED 1927-06-02 21:00:00 TS 19.1401 88.9741 main 275 237 _________PP___ -1 19.2725 88.8776 TC 59 19.0077 89.0707 3 7 323
1927151N17091 1927 27 NI BB NOT_NAMED 1927-06-03 00:00:00 TS 19.3865 88.7827 main 237 215 _________OP___ -1 19.5000 88.7000 TC 64 19.2730 88.8655 3 5 325
1927151N17091 1927 27 NI BB NOT_NAMED 1927-06-03 03:00:00 TS 19.5612 88.6637 main 215 200 _________PO___ -1 19.6225 88.6274 TC 64 19.5000 88.7000 4 3 329
1927151N17091 1927 27 NI BB NOT_NAMED 1927-06-03 06:00:00 TS 19.6695 88.6012 main 200 194 _________OP___ -1 19.7000 88.6000 TC 64 19.6389 88.6024 4 2 332
1927151N17091 1927 27 NI BB NOT_NAMED 1927-06-03 09:00:00 TS 19.7687 88.5485 main 186 180 _________PP___ -1 19.8000 88.5500 TC 64 19.7373 88.5471 4 2 335
1927151N17091 1927 27 NI BB NOT_NAMED 1927-06-03 12:00:00 TS 19.8585 88.5091 main 180 180 _________OP___ -1 19.9000 88.5000 TC 64 19.8171 88.5182 4 2 339
1927151N17091 1927 27 NI BB NOT_NAMED 1927-06-03 15:00:00 TS 19.9463 88.4713 main 180 165 _________PO___ -1 19.9925 88.4425 TC 64 19.9000 88.5000 4 2 339
1927151N17091 1927 27 NI BB NOT_NAMED 1927-06-03 18:00:00 TS 20.0426 88.4419 main 165 160 _________OP___ -1 20.1000 88.4000 TC 64 19.9853 88.4838 4 2 348
1927151N17091 1927 27 NI BB NOT_NAMED 1927-06-03 21:00:00 TS 20.1475 88.4397 main 160 145 _________PP___ -1 20.2125 88.4074 TC 64 20.0824 88.4721 4 3 354
1927151N17091 1927 27 NI BB NOT_NAMED 1927-06-04 00:00:00 TS 20.3067 88.4247 main 145 123 _________OP___ -1 20.4000 88.4000 TC 64 20.2134 88.4493 4 4 350
1927151N17091 1927 27 NI BB NOT_NAMED 1927-06-04 03:00:00 TS 20.5637 88.3613 main 111 78 _________PO___ -1 20.7275 88.3225 TC 64 20.4000 88.4000 4 6 344
1927151N17091 1927 27 NI BB NOT_NAMED 1927-06-04 06:00:00 TS 20.8736 88.2499 main 78 45 _________OP___ -1 21.1000 88.2000 TC 64 20.6473 88.2998 4 7 339
1927151N17091 1927 27 NI BB NOT_NAMED 1927-06-04 09:00:00 TS 21.1688 88.1151 main 45 23 _________PP___ -1 21.3850 88.0574 TC 64 20.9526 88.1727 4 7 337
1927151N17091 1927 27 NI BB NOT_NAMED 1927-06-04 12:00:00 TS 21.5033 87.9671 main 23 0 _________OP___ -1 21.7000 87.9000 TC 64 21.3067 88.0342 4 8 340
1927151N17091 1927 27 NI BB NOT_NAMED 1927-06-04 15:00:00 TS 21.9138 87.8176 main 0 0 _________PO___ -1 22.1275 87.7351 TC 55 21.7000 87.9000 4 9 343
1927151N17091 1927 27 NI BB NOT_NAMED 1927-06-04 18:00:00 TS 22.3733 87.6884 main 0 0 _________OP___ -1 22.6000 87.6000 TC 47 22.1466 87.7769 4 10 348
1927151N17091 1927 27 NI BB NOT_NAMED 1927-06-04 21:00:00 TS 22.8512 87.5952 main 0 0 _________PP___ -1 23.0800 87.5274 TC 38 22.6225 87.6630 4 9 351
1927151N17091 1927 27 NI BB NOT_NAMED 1927-06-05 00:00:00 TS 23.2936 87.5338 main 0 0 _________OP___ -1 23.5000 87.5000 TC 30 23.0872 87.5675 4 8 354
1927151N17091 1927 27 NI BB NOT_NAMED 1927-06-05 03:00:00 TS 23.6400 87.4962 main 0 0 _________PO___ -1 23.7800 87.4924 TC 30 23.5000 87.5000 1 6 356
1927151N17091 1927 27 NI BB NOT_NAMED 1927-06-05 06:00:00 TS 23.9098 87.4834 main 0 0 _________OP___ -1 24.0000 87.5000 TC 30 23.8196 87.4668 1 5 0
1927151N17091 1927 27 NI BB NOT_NAMED 1927-06-05 09:00:00 TS 24.1699 87.4810 main 0 0 _________PP___ -1 24.2575 87.5000 TC 30 24.0824 87.4620 1 5 2
1927151N17091 1927 27 NI BB NOT_NAMED 1927-06-05 12:00:00 TS 24.4020 87.4882 main 0 0 _________OP___ -1 24.5000 87.5000 TC 30 24.3040 87.4763 1 4 0
1927151N17091 1927 27 NI BB NOT_NAMED 1927-06-05 15:00:00 TS 24.6075 87.4963 main 0 0 _________PO___ -1 24.7150 87.4925 TC 30 24.5000 87.5000 1 4 4
1927151N17091 1927 27 NI BB NOT_NAMED 1927-06-05 18:00:00 TS 24.7764 87.5144 main 0 0 _________OP___ -1 24.9000 87.5000 TC 30 24.6838 87.5251 1 3 6
1927151N17091 1927 27 NI BB NOT_NAMED 1927-06-05 21:00:00 TS 24.9390 87.5461 main 0 0 _________PP___ -1 25.0575 87.5400 TC 30 24.8600 87.5501 1 3 13
1927151N17091 1927 27 NI BB NOT_NAMED 1927-06-06 00:00:00 TS 25.0875 87.5834 main 0 0 _________OP___ -1 25.2000 87.6000 TC 30 25.0313 87.5751 1 3 13
1927151N17091 1927 27 NI BB NOT_NAMED 1927-06-06 03:00:00 NR 25.2000 87.6000 main 0 __________O___ -1 TC 25.2000 87.6000 1 2 0

IBTrACS Databaseについて

本データベースは、米国NOAAが公開する1842年以降の世界の熱帯低気圧のベストトラックデータアーカイブInternational Best Track Archive for Climate Stewardship (IBTrACS)を、ウェブで閲覧しやすい形式に変換したものです。

最終更新日:2021-10-21